sensor_id;sensor_type;location;lat;lon;timestamp;P1;durP1;ratioP1;P2;durP2;ratioP2
7557;SDS011;3820;51.098;13.716;2023-04-09T00:02:02;55.93;;;33.00;;
7557;SDS011;3820;51.098;13.716;2023-04-09T00:04:29;55.47;;;32.87;;
7557;SDS011;3820;51.098;13.716;2023-04-09T00:06:55;61.47;;;34.47;;
7557;SDS011;3820;51.098;13.716;2023-04-09T00:09:22;58.17;;;33.80;;
7557;SDS011;3820;51.098;13.716;2023-04-09T00:11:48;62.83;;;35.13;;
7557;SDS011;3820;51.098;13.716;2023-04-09T00:14:15;57.80;;;34.87;;
7557;SDS011;3820;51.098;13.716;2023-04-09T00:16:41;60.80;;;35.40;;
7557;SDS011;3820;51.098;13.716;2023-04-09T00:19:08;61.27;;;35.07;;
7557;SDS011;3820;51.098;13.716;2023-04-09T00:21:34;62.93;;;36.17;;
7557;SDS011;3820;51.098;13.716;2023-04-09T00:24:01;61.97;;;35.97;;
7557;SDS011;3820;51.098;13.716;2023-04-09T00:26:27;63.93;;;37.10;;
7557;SDS011;3820;51.098;13.716;2023-04-09T00:28:54;58.20;;;34.73;;
7557;SDS011;3820;51.098;13.716;2023-04-09T00:31:20;64.07;;;36.37;;
7557;SDS011;3820;51.098;13.716;2023-04-09T00:33:48;62.03;;;35.40;;
7557;SDS011;3820;51.098;13.716;2023-04-09T00:36:15;61.70;;;34.90;;
7557;SDS011;3820;51.098;13.716;2023-04-09T00:38:48;62.93;;;35.67;;
7557;SDS011;3820;51.098;13.716;2023-04-09T00:41:16;64.97;;;36.03;;
7557;SDS011;3820;51.098;13.716;2023-04-09T00:43:43;67.27;;;37.07;;
7557;SDS011;3820;51.098;13.716;2023-04-09T00:46:10;70.23;;;37.63;;
7557;SDS011;3820;51.098;13.716;2023-04-09T00:48:37;67.17;;;37.90;;
7557;SDS011;3820;51.098;13.716;2023-04-09T00:51:04;69.47;;;38.50;;
7557;SDS011;3820;51.098;13.716;2023-04-09T00:53:30;72.63;;;39.57;;
7557;SDS011;3820;51.098;13.716;2023-04-09T00:55:57;67.47;;;38.97;;
7557;SDS011;3820;51.098;13.716;2023-04-09T00:58:23;68.33;;;37.97;;
7557;SDS011;3820;51.098;13.716;2023-04-09T01:00:50;70.80;;;39.90;;
7557;SDS011;3820;51.098;13.716;2023-04-09T01:03:17;66.83;;;37.97;;
7557;SDS011;3820;51.098;13.716;2023-04-09T01:06:00;76.37;;;40.63;;
7557;SDS011;3820;51.098;13.716;2023-04-09T01:14:11;79.00;;;43.40;;
7557;SDS011;3820;51.098;13.716;2023-04-09T01:16:45;78.83;;;43.53;;
7557;SDS011;3820;51.098;13.716;2023-04-09T01:21:58;81.87;;;44.30;;
7557;SDS011;3820;51.098;13.716;2023-04-09T01:27:12;75.87;;;41.43;;
7557;SDS011;3820;51.098;13.716;2023-04-09T01:29:49;79.17;;;42.53;;
7557;SDS011;3820;51.098;13.716;2023-04-09T01:32:18;77.37;;;44.00;;
7557;SDS011;3820;51.098;13.716;2023-04-09T01:34:46;76.60;;;43.60;;
7557;SDS011;3820;51.098;13.716;2023-04-09T01:37:13;92.73;;;48.93;;
7557;SDS011;3820;51.098;13.716;2023-04-09T01:39:40;104.77;;;52.67;;
7557;SDS011;3820;51.098;13.716;2023-04-09T01:42:08;93.30;;;46.63;;
7557;SDS011;3820;51.098;13.716;2023-04-09T01:44:39;96.87;;;50.27;;
7557;SDS011;3820;51.098;13.716;2023-04-09T01:47:08;89.73;;;47.70;;
7557;SDS011;3820;51.098;13.716;2023-04-09T01:49:36;85.43;;;47.40;;
7557;SDS011;3820;51.098;13.716;2023-04-09T01:52:04;84.77;;;45.97;;
7557;SDS011;3820;51.098;13.716;2023-04-09T01:54:31;87.63;;;47.80;;
7557;SDS011;3820;51.098;13.716;2023-04-09T01:56:58;90.87;;;47.83;;
7557;SDS011;3820;51.098;13.716;2023-04-09T01:59:24;84.43;;;46.73;;
7557;SDS011;3820;51.098;13.716;2023-04-09T02:01:59;81.33;;;45.27;;
7557;SDS011;3820;51.098;13.716;2023-04-09T02:04:29;82.37;;;43.70;;
7557;SDS011;3820;51.098;13.716;2023-04-09T02:09:33;78.07;;;44.43;;
7557;SDS011;3820;51.098;13.716;2023-04-09T02:12:02;81.53;;;44.60;;
7557;SDS011;3820;51.098;13.716;2023-04-09T02:14:30;84.80;;;44.53;;
7557;SDS011;3820;51.098;13.716;2023-04-09T02:16:58;83.43;;;44.20;;
7557;SDS011;3820;51.098;13.716;2023-04-09T02:19:36;81.13;;;45.63;;
7557;SDS011;3820;51.098;13.716;2023-04-09T02:22:12;87.20;;;47.10;;
7557;SDS011;3820;51.098;13.716;2023-04-09T02:24:39;75.43;;;42.97;;
7557;SDS011;3820;51.098;13.716;2023-04-09T02:27:06;74.07;;;42.80;;
7557;SDS011;3820;51.098;13.716;2023-04-09T02:29:34;78.63;;;44.97;;
7557;SDS011;3820;51.098;13.716;2023-04-09T02:32:02;76.07;;;42.10;;
7557;SDS011;3820;51.098;13.716;2023-04-09T02:34:29;77.83;;;43.20;;
7557;SDS011;3820;51.098;13.716;2023-04-09T02:36:57;78.03;;;43.83;;
7557;SDS011;3820;51.098;13.716;2023-04-09T02:39:27;70.20;;;41.20;;
7557;SDS011;3820;51.098;13.716;2023-04-09T02:41:54;79.40;;;43.03;;
7557;SDS011;3820;51.098;13.716;2023-04-09T02:44:21;75.60;;;42.93;;
7557;SDS011;3820;51.098;13.716;2023-04-09T02:46:48;76.40;;;43.97;;
7557;SDS011;3820;51.098;13.716;2023-04-09T02:49:16;77.67;;;42.60;;
7557;SDS011;3820;51.098;13.716;2023-04-09T02:51:43;79.03;;;45.00;;
7557;SDS011;3820;51.098;13.716;2023-04-09T02:54:09;77.27;;;43.57;;
7557;SDS011;3820;51.098;13.716;2023-04-09T02:56:36;83.43;;;45.70;;
7557;SDS011;3820;51.098;13.716;2023-04-09T02:59:03;81.90;;;44.53;;
7557;SDS011;3820;51.098;13.716;2023-04-09T03:01:29;83.27;;;44.77;;
7557;SDS011;3820;51.098;13.716;2023-04-09T03:03:56;93.13;;;48.13;;
7557;SDS011;3820;51.098;13.716;2023-04-09T03:06:22;82.10;;;45.17;;
7557;SDS011;3820;51.098;13.716;2023-04-09T03:08:49;86.80;;;46.27;;
7557;SDS011;3820;51.098;13.716;2023-04-09T03:11:16;87.47;;;46.07;;
7557;SDS011;3820;51.098;13.716;2023-04-09T03:13:42;88.67;;;47.57;;
7557;SDS011;3820;51.098;13.716;2023-04-09T03:16:09;83.90;;;46.60;;
7557;SDS011;3820;51.098;13.716;2023-04-09T03:18:36;84.53;;;44.77;;
7557;SDS011;3820;51.098;13.716;2023-04-09T03:21:03;82.27;;;44.07;;
7557;SDS011;3820;51.098;13.716;2023-04-09T03:23:33;85.67;;;46.20;;
7557;SDS011;3820;51.098;13.716;2023-04-09T03:26:03;85.87;;;46.63;;
7557;SDS011;3820;51.098;13.716;2023-04-09T03:28:31;82.60;;;46.93;;
7557;SDS011;3820;51.098;13.716;2023-04-09T03:30:57;87.00;;;45.67;;
7557;SDS011;3820;51.098;13.716;2023-04-09T03:33:24;83.10;;;45.07;;
7557;SDS011;3820;51.098;13.716;2023-04-09T03:35:53;96.73;;;48.97;;
7557;SDS011;3820;51.098;13.716;2023-04-09T03:38:19;95.90;;;49.30;;
7557;SDS011;3820;51.098;13.716;2023-04-09T03:40:46;96.13;;;49.13;;
7557;SDS011;3820;51.098;13.716;2023-04-09T03:43:13;99.13;;;49.17;;
7557;SDS011;3820;51.098;13.716;2023-04-09T03:45:40;98.73;;;51.37;;
7557;SDS011;3820;51.098;13.716;2023-04-09T03:48:07;108.37;;;53.97;;
7557;SDS011;3820;51.098;13.716;2023-04-09T03:50:39;108.90;;;53.03;;
7557;SDS011;3820;51.098;13.716;2023-04-09T03:53:07;112.13;;;54.70;;
7557;SDS011;3820;51.098;13.716;2023-04-09T03:55:36;105.20;;;52.77;;
7557;SDS011;3820;51.098;13.716;2023-04-09T03:58:02;94.07;;;49.03;;
7557;SDS011;3820;51.098;13.716;2023-04-09T04:00:29;95.33;;;50.13;;
7557;SDS011;3820;51.098;13.716;2023-04-09T04:02:55;96.47;;;50.83;;
7557;SDS011;3820;51.098;13.716;2023-04-09T04:05:22;100.70;;;51.80;;
7557;SDS011;3820;51.098;13.716;2023-04-09T04:07:50;98.13;;;51.17;;
7557;SDS011;3820;51.098;13.716;2023-04-09T04:10:17;89.80;;;49.10;;
7557;SDS011;3820;51.098;13.716;2023-04-09T04:12:43;89.67;;;48.07;;
7557;SDS011;3820;51.098;13.716;2023-04-09T04:15:10;87.27;;;47.17;;
7557;SDS011;3820;51.098;13.716;2023-04-09T04:17:36;88.53;;;47.80;;
7557;SDS011;3820;51.098;13.716;2023-04-09T04:20:04;83.23;;;45.93;;
7557;SDS011;3820;51.098;13.716;2023-04-09T04:22:32;86.47;;;47.07;;
7557;SDS011;3820;51.098;13.716;2023-04-09T04:24:59;89.30;;;48.93;;
7557;SDS011;3820;51.098;13.716;2023-04-09T04:27:25;89.83;;;47.63;;
7557;SDS011;3820;51.098;13.716;2023-04-09T04:29:52;92.33;;;49.13;;
7557;SDS011;3820;51.098;13.716;2023-04-09T04:32:18;89.63;;;46.87;;
7557;SDS011;3820;51.098;13.716;2023-04-09T04:34:47;84.03;;;46.17;;
7557;SDS011;3820;51.098;13.716;2023-04-09T04:37:15;83.37;;;46.17;;
7557;SDS011;3820;51.098;13.716;2023-04-09T04:39:41;88.20;;;47.87;;
7557;SDS011;3820;51.098;13.716;2023-04-09T04:42:08;93.93;;;50.40;;
7557;SDS011;3820;51.098;13.716;2023-04-09T04:44:34;82.40;;;47.13;;
7557;SDS011;3820;51.098;13.716;2023-04-09T04:47:01;93.83;;;50.60;;
7557;SDS011;3820;51.098;13.716;2023-04-09T04:49:28;94.47;;;50.07;;
7557;SDS011;3820;51.098;13.716;2023-04-09T04:51:55;88.17;;;49.00;;
7557;SDS011;3820;51.098;13.716;2023-04-09T04:54:22;91.13;;;49.17;;
7557;SDS011;3820;51.098;13.716;2023-04-09T04:56:48;89.63;;;49.20;;
7557;SDS011;3820;51.098;13.716;2023-04-09T04:59:14;86.43;;;48.13;;
7557;SDS011;3820;51.098;13.716;2023-04-09T05:01:41;91.27;;;49.87;;
7557;SDS011;3820;51.098;13.716;2023-04-09T05:04:08;85.80;;;47.60;;
7557;SDS011;3820;51.098;13.716;2023-04-09T05:06:34;90.70;;;48.90;;
7557;SDS011;3820;51.098;13.716;2023-04-09T05:09:01;88.17;;;49.23;;
7557;SDS011;3820;51.098;13.716;2023-04-09T05:11:27;88.50;;;49.23;;
7557;SDS011;3820;51.098;13.716;2023-04-09T05:13:54;92.40;;;49.00;;
7557;SDS011;3820;51.098;13.716;2023-04-09T05:16:20;95.80;;;49.50;;
7557;SDS011;3820;51.098;13.716;2023-04-09T05:18:47;82.73;;;46.67;;
7557;SDS011;3820;51.098;13.716;2023-04-09T05:21:13;86.90;;;47.77;;
7557;SDS011;3820;51.098;13.716;2023-04-09T05:23:40;88.57;;;48.47;;
7557;SDS011;3820;51.098;13.716;2023-04-09T05:26:06;90.63;;;48.23;;
7557;SDS011;3820;51.098;13.716;2023-04-09T05:28:33;85.77;;;48.13;;
7557;SDS011;3820;51.098;13.716;2023-04-09T05:31:00;96.40;;;50.70;;
7557;SDS011;3820;51.098;13.716;2023-04-09T05:33:27;85.17;;;49.07;;
7557;SDS011;3820;51.098;13.716;2023-04-09T05:35:54;87.83;;;51.67;;
7557;SDS011;3820;51.098;13.716;2023-04-09T05:38:20;87.57;;;53.80;;
7557;SDS011;3820;51.098;13.716;2023-04-09T05:40:47;79.00;;;48.23;;
7557;SDS011;3820;51.098;13.716;2023-04-09T05:43:14;70.77;;;44.47;;
7557;SDS011;3820;51.098;13.716;2023-04-09T05:45:41;66.83;;;43.87;;
7557;SDS011;3820;51.098;13.716;2023-04-09T05:48:10;62.07;;;41.87;;
7557;SDS011;3820;51.098;13.716;2023-04-09T05:50:37;56.57;;;36.83;;
7557;SDS011;3820;51.098;13.716;2023-04-09T05:53:19;49.63;;;33.90;;
7557;SDS011;3820;51.098;13.716;2023-04-09T05:55:46;46.03;;;32.17;;
7557;SDS011;3820;51.098;13.716;2023-04-09T05:58:14;47.43;;;32.90;;
7557;SDS011;3820;51.098;13.716;2023-04-09T06:00:46;44.73;;;31.53;;
7557;SDS011;3820;51.098;13.716;2023-04-09T06:03:13;45.63;;;32.17;;
7557;SDS011;3820;51.098;13.716;2023-04-09T06:05:40;42.80;;;30.70;;
7557;SDS011;3820;51.098;13.716;2023-04-09T06:08:06;42.27;;;31.47;;
7557;SDS011;3820;51.098;13.716;2023-04-09T06:10:33;43.37;;;31.30;;
7557;SDS011;3820;51.098;13.716;2023-04-09T06:13:00;40.93;;;30.63;;
7557;SDS011;3820;51.098;13.716;2023-04-09T06:15:28;41.37;;;30.80;;
7557;SDS011;3820;51.098;13.716;2023-04-09T06:17:55;40.40;;;31.13;;
7557;SDS011;3820;51.098;13.716;2023-04-09T06:20:24;39.15;;;30.52;;
7557;SDS011;3820;51.098;13.716;2023-04-09T06:22:51;40.30;;;30.50;;
7557;SDS011;3820;51.098;13.716;2023-04-09T06:25:17;40.63;;;30.00;;
7557;SDS011;3820;51.098;13.716;2023-04-09T06:27:43;38.53;;;29.98;;
7557;SDS011;3820;51.098;13.716;2023-04-09T06:30:10;38.10;;;30.50;;
7557;SDS011;3820;51.098;13.716;2023-04-09T06:32:38;38.55;;;30.20;;
7557;SDS011;3820;51.098;13.716;2023-04-09T06:35:19;37.95;;;30.92;;
7557;SDS011;3820;51.098;13.716;2023-04-09T06:37:46;35.90;;;29.40;;
7557;SDS011;3820;51.098;13.716;2023-04-09T06:40:13;36.33;;;28.55;;
7557;SDS011;3820;51.098;13.716;2023-04-09T06:42:39;35.55;;;28.23;;
7557;SDS011;3820;51.098;13.716;2023-04-09T06:45:07;33.88;;;28.13;;
7557;SDS011;3820;51.098;13.716;2023-04-09T06:47:34;37.33;;;28.95;;
7557;SDS011;3820;51.098;13.716;2023-04-09T06:50:01;38.33;;;29.77;;
7557;SDS011;3820;51.098;13.716;2023-04-09T06:52:29;35.42;;;30.73;;
7557;SDS011;3820;51.098;13.716;2023-04-09T06:54:55;36.10;;;29.95;;
7557;SDS011;3820;51.098;13.716;2023-04-09T06:57:22;37.67;;;30.50;;
7557;SDS011;3820;51.098;13.716;2023-04-09T06:59:48;37.95;;;31.35;;
7557;SDS011;3820;51.098;13.716;2023-04-09T07:02:15;39.17;;;32.35;;
7557;SDS011;3820;51.098;13.716;2023-04-09T07:04:42;39.08;;;31.73;;
7557;SDS011;3820;51.098;13.716;2023-04-09T07:07:08;40.00;;;33.95;;
7557;SDS011;3820;51.098;13.716;2023-04-09T07:09:35;36.28;;;31.40;;
7557;SDS011;3820;51.098;13.716;2023-04-09T07:12:01;38.03;;;32.92;;
7557;SDS011;3820;51.098;13.716;2023-04-09T07:14:28;40.13;;;34.03;;
7557;SDS011;3820;51.098;13.716;2023-04-09T07:16:55;38.47;;;33.15;;
7557;SDS011;3820;51.098;13.716;2023-04-09T07:19:21;41.90;;;34.63;;
7557;SDS011;3820;51.098;13.716;2023-04-09T07:21:48;36.90;;;31.90;;
7557;SDS011;3820;51.098;13.716;2023-04-09T07:24:16;40.92;;;35.25;;
7557;SDS011;3820;51.098;13.716;2023-04-09T07:26:42;39.35;;;33.08;;
7557;SDS011;3820;51.098;13.716;2023-04-09T07:29:09;35.17;;;31.40;;
7557;SDS011;3820;51.098;13.716;2023-04-09T07:31:35;37.05;;;32.70;;
7557;SDS011;3820;51.098;13.716;2023-04-09T07:34:02;39.42;;;33.28;;
7557;SDS011;3820;51.098;13.716;2023-04-09T07:36:29;39.58;;;33.25;;
7557;SDS011;3820;51.098;13.716;2023-04-09T07:38:57;39.80;;;31.90;;
7557;SDS011;3820;51.098;13.716;2023-04-09T07:41:23;34.80;;;30.95;;
7557;SDS011;3820;51.098;13.716;2023-04-09T07:43:50;38.53;;;32.63;;
7557;SDS011;3820;51.098;13.716;2023-04-09T07:46:17;37.33;;;31.80;;
7557;SDS011;3820;51.098;13.716;2023-04-09T07:48:46;39.22;;;31.73;;
7557;SDS011;3820;51.098;13.716;2023-04-09T07:51:15;40.33;;;33.08;;
7557;SDS011;3820;51.098;13.716;2023-04-09T07:53:42;41.78;;;34.78;;
7557;SDS011;3820;51.098;13.716;2023-04-09T07:56:09;41.63;;;34.00;;
7557;SDS011;3820;51.098;13.716;2023-04-09T07:58:36;38.20;;;31.73;;
7557;SDS011;3820;51.098;13.716;2023-04-09T08:01:06;39.55;;;32.42;;
7557;SDS011;3820;51.098;13.716;2023-04-09T08:03:33;41.50;;;32.50;;
7557;SDS011;3820;51.098;13.716;2023-04-09T08:06:02;39.22;;;31.60;;
7557;SDS011;3820;51.098;13.716;2023-04-09T08:08:28;41.83;;;34.42;;
7557;SDS011;3820;51.098;13.716;2023-04-09T08:10:56;39.90;;;34.20;;
7557;SDS011;3820;51.098;13.716;2023-04-09T08:13:22;37.75;;;31.25;;
7557;SDS011;3820;51.098;13.716;2023-04-09T08:15:50;40.20;;;33.03;;
7557;SDS011;3820;51.098;13.716;2023-04-09T08:18:17;37.10;;;31.13;;
7557;SDS011;3820;51.098;13.716;2023-04-09T08:20:43;37.40;;;32.30;;
7557;SDS011;3820;51.098;13.716;2023-04-09T08:23:13;38.35;;;33.40;;
7557;SDS011;3820;51.098;13.716;2023-04-09T08:25:39;42.78;;;33.78;;
7557;SDS011;3820;51.098;13.716;2023-04-09T08:28:06;39.33;;;33.58;;
7557;SDS011;3820;51.098;13.716;2023-04-09T08:30:33;40.03;;;32.75;;
7557;SDS011;3820;51.098;13.716;2023-04-09T08:33:00;38.17;;;32.20;;
7557;SDS011;3820;51.098;13.716;2023-04-09T08:35:31;39.17;;;33.13;;
7557;SDS011;3820;51.098;13.716;2023-04-09T08:37:58;39.45;;;33.35;;
7557;SDS011;3820;51.098;13.716;2023-04-09T08:40:24;37.90;;;33.30;;
7557;SDS011;3820;51.098;13.716;2023-04-09T08:42:54;37.65;;;32.85;;
7557;SDS011;3820;51.098;13.716;2023-04-09T08:45:22;39.35;;;33.35;;
7557;SDS011;3820;51.098;13.716;2023-04-09T08:47:49;32.90;;;28.50;;
7557;SDS011;3820;51.098;13.716;2023-04-09T08:50:16;32.20;;;28.63;;
7557;SDS011;3820;51.098;13.716;2023-04-09T08:52:44;30.42;;;26.98;;
7557;SDS011;3820;51.098;13.716;2023-04-09T08:55:12;29.40;;;26.27;;
7557;SDS011;3820;51.098;13.716;2023-04-09T08:57:38;32.35;;;28.25;;
7557;SDS011;3820;51.098;13.716;2023-04-09T09:00:05;31.63;;;27.25;;
7557;SDS011;3820;51.098;13.716;2023-04-09T09:02:33;29.75;;;26.13;;
7557;SDS011;3820;51.098;13.716;2023-04-09T09:05:01;31.70;;;26.92;;
7557;SDS011;3820;51.098;13.716;2023-04-09T09:07:28;27.42;;;24.33;;
7557;SDS011;3820;51.098;13.716;2023-04-09T09:09:55;29.23;;;25.13;;
7557;SDS011;3820;51.098;13.716;2023-04-09T09:12:34;29.17;;;25.52;;
7557;SDS011;3820;51.098;13.716;2023-04-09T09:15:05;29.75;;;26.25;;
7557;SDS011;3820;51.098;13.716;2023-04-09T09:17:54;27.63;;;24.70;;
7557;SDS011;3820;51.098;13.716;2023-04-09T09:20:22;27.83;;;24.83;;
7557;SDS011;3820;51.098;13.716;2023-04-09T09:22:49;28.98;;;25.30;;
7557;SDS011;3820;51.098;13.716;2023-04-09T09:25:20;32.70;;;27.45;;
7557;SDS011;3820;51.098;13.716;2023-04-09T09:27:52;30.05;;;26.63;;
7557;SDS011;3820;51.098;13.716;2023-04-09T09:30:20;33.15;;;28.15;;
7557;SDS011;3820;51.098;13.716;2023-04-09T09:32:50;33.83;;;27.58;;
7557;SDS011;3820;51.098;13.716;2023-04-09T09:35:21;30.60;;;26.45;;
7557;SDS011;3820;51.098;13.716;2023-04-09T09:37:59;30.45;;;26.73;;
7557;SDS011;3820;51.098;13.716;2023-04-09T09:40:26;29.67;;;26.45;;
7557;SDS011;3820;51.098;13.716;2023-04-09T09:42:56;33.65;;;27.73;;
7557;SDS011;3820;51.098;13.716;2023-04-09T09:45:23;31.00;;;27.15;;
7557;SDS011;3820;51.098;13.716;2023-04-09T09:47:51;29.48;;;26.15;;
7557;SDS011;3820;51.098;13.716;2023-04-09T09:50:19;30.58;;;27.27;;
7557;SDS011;3820;51.098;13.716;2023-04-09T09:52:49;31.60;;;26.65;;
7557;SDS011;3820;51.098;13.716;2023-04-09T09:55:16;30.75;;;26.83;;
7557;SDS011;3820;51.098;13.716;2023-04-09T09:57:43;32.72;;;28.65;;
7557;SDS011;3820;51.098;13.716;2023-04-09T10:00:13;32.13;;;27.15;;
7557;SDS011;3820;51.098;13.716;2023-04-09T10:02:42;33.20;;;27.35;;
7557;SDS011;3820;51.098;13.716;2023-04-09T10:05:10;33.50;;;28.77;;
7557;SDS011;3820;51.098;13.716;2023-04-09T10:07:37;32.92;;;27.38;;
7557;SDS011;3820;51.098;13.716;2023-04-09T10:10:04;32.60;;;27.17;;
7557;SDS011;3820;51.098;13.716;2023-04-09T10:12:32;35.50;;;29.17;;
7557;SDS011;3820;51.098;13.716;2023-04-09T10:14:59;32.42;;;27.48;;
7557;SDS011;3820;51.098;13.716;2023-04-09T10:17:29;30.52;;;26.98;;
7557;SDS011;3820;51.098;13.716;2023-04-09T10:20:00;30.02;;;26.35;;
7557;SDS011;3820;51.098;13.716;2023-04-09T10:22:32;32.15;;;28.02;;
7557;SDS011;3820;51.098;13.716;2023-04-09T10:25:02;30.40;;;27.00;;
7557;SDS011;3820;51.098;13.716;2023-04-09T10:27:29;31.55;;;26.80;;
7557;SDS011;3820;51.098;13.716;2023-04-09T10:29:56;30.02;;;26.77;;
7557;SDS011;3820;51.098;13.716;2023-04-09T10:32:25;31.60;;;27.05;;
7557;SDS011;3820;51.098;13.716;2023-04-09T10:34:57;30.38;;;26.80;;
7557;SDS011;3820;51.098;13.716;2023-04-09T10:37:25;32.83;;;27.25;;
7557;SDS011;3820;51.098;13.716;2023-04-09T10:39:52;30.02;;;26.65;;
7557;SDS011;3820;51.098;13.716;2023-04-09T10:42:20;30.65;;;27.33;;
7557;SDS011;3820;51.098;13.716;2023-04-09T10:45:11;34.70;;;28.75;;
7557;SDS011;3820;51.098;13.716;2023-04-09T10:47:40;31.45;;;26.63;;
7557;SDS011;3820;51.098;13.716;2023-04-09T10:52:41;32.90;;;27.45;;
7557;SDS011;3820;51.098;13.716;2023-04-09T10:55:28;33.90;;;28.25;;
7557;SDS011;3820;51.098;13.716;2023-04-09T10:57:56;33.97;;;27.75;;
7557;SDS011;3820;51.098;13.716;2023-04-09T11:00:23;31.98;;;27.77;;
7557;SDS011;3820;51.098;13.716;2023-04-09T11:05:32;33.53;;;28.45;;
7557;SDS011;3820;51.098;13.716;2023-04-09T11:10:30;32.10;;;26.70;;
7557;SDS011;3820;51.098;13.716;2023-04-09T11:12:58;32.97;;;27.20;;
7557;SDS011;3820;51.098;13.716;2023-04-09T11:15:25;29.77;;;26.20;;
7557;SDS011;3820;51.098;13.716;2023-04-09T11:17:52;30.77;;;26.38;;
7557;SDS011;3820;51.098;13.716;2023-04-09T11:20:20;31.20;;;27.30;;
7557;SDS011;3820;51.098;13.716;2023-04-09T11:22:49;34.03;;;28.70;;
7557;SDS011;3820;51.098;13.716;2023-04-09T11:25:24;33.70;;;27.42;;
7557;SDS011;3820;51.098;13.716;2023-04-09T11:27:51;34.65;;;28.17;;
7557;SDS011;3820;51.098;13.716;2023-04-09T11:30:18;34.58;;;27.35;;
7557;SDS011;3820;51.098;13.716;2023-04-09T11:32:45;33.38;;;27.02;;
7557;SDS011;3820;51.098;13.716;2023-04-09T11:35:20;32.83;;;26.85;;
7557;SDS011;3820;51.098;13.716;2023-04-09T11:37:47;31.20;;;26.67;;
7557;SDS011;3820;51.098;13.716;2023-04-09T11:40:16;33.13;;;26.92;;
7557;SDS011;3820;51.098;13.716;2023-04-09T11:42:44;33.75;;;27.42;;
7557;SDS011;3820;51.098;13.716;2023-04-09T11:45:11;30.90;;;27.10;;
7557;SDS011;3820;51.098;13.716;2023-04-09T11:47:39;33.03;;;26.42;;
7557;SDS011;3820;51.098;13.716;2023-04-09T11:50:07;32.35;;;27.27;;
7557;SDS011;3820;51.098;13.716;2023-04-09T11:52:35;33.38;;;27.98;;
7557;SDS011;3820;51.098;13.716;2023-04-09T11:55:02;35.60;;;29.60;;
7557;SDS011;3820;51.098;13.716;2023-04-09T11:57:37;32.63;;;27.05;;
7557;SDS011;3820;51.098;13.716;2023-04-09T12:00:06;31.02;;;27.38;;
7557;SDS011;3820;51.098;13.716;2023-04-09T12:02:38;31.75;;;26.35;;
7557;SDS011;3820;51.098;13.716;2023-04-09T12:05:19;32.75;;;27.35;;
7557;SDS011;3820;51.098;13.716;2023-04-09T12:07:50;28.77;;;24.95;;
7557;SDS011;3820;51.098;13.716;2023-04-09T12:10:25;29.60;;;24.95;;
7557;SDS011;3820;51.098;13.716;2023-04-09T12:12:52;32.10;;;25.45;;
7557;SDS011;3820;51.098;13.716;2023-04-09T12:15:23;30.27;;;24.63;;
7557;SDS011;3820;51.098;13.716;2023-04-09T12:17:54;28.85;;;23.48;;
7557;SDS011;3820;51.098;13.716;2023-04-09T12:20:26;31.15;;;25.65;;
7557;SDS011;3820;51.098;13.716;2023-04-09T12:23:03;29.52;;;25.02;;
7557;SDS011;3820;51.098;13.716;2023-04-09T12:25:30;28.98;;;23.90;;
7557;SDS011;3820;51.098;13.716;2023-04-09T12:27:57;28.42;;;24.15;;
7557;SDS011;3820;51.098;13.716;2023-04-09T12:30:24;27.35;;;22.40;;
7557;SDS011;3820;51.098;13.716;2023-04-09T12:32:51;25.30;;;21.98;;
7557;SDS011;3820;51.098;13.716;2023-04-09T12:35:19;28.92;;;24.00;;
7557;SDS011;3820;51.098;13.716;2023-04-09T12:37:46;26.33;;;22.38;;
7557;SDS011;3820;51.098;13.716;2023-04-09T12:40:12;28.63;;;22.15;;
7557;SDS011;3820;51.098;13.716;2023-04-09T12:42:39;23.67;;;20.80;;
7557;SDS011;3820;51.098;13.716;2023-04-09T12:45:08;26.00;;;21.60;;
7557;SDS011;3820;51.098;13.716;2023-04-09T12:47:35;25.25;;;21.58;;
7557;SDS011;3820;51.098;13.716;2023-04-09T12:50:05;26.80;;;22.42;;
7557;SDS011;3820;51.098;13.716;2023-04-09T12:52:33;30.52;;;25.27;;
7557;SDS011;3820;51.098;13.716;2023-04-09T12:55:00;28.25;;;24.00;;
7557;SDS011;3820;51.098;13.716;2023-04-09T12:57:27;33.67;;;27.67;;
7557;SDS011;3820;51.098;13.716;2023-04-09T12:59:54;31.60;;;26.05;;
7557;SDS011;3820;51.098;13.716;2023-04-09T13:02:20;34.90;;;27.92;;
7557;SDS011;3820;51.098;13.716;2023-04-09T13:04:47;31.40;;;26.35;;
7557;SDS011;3820;51.098;13.716;2023-04-09T13:07:14;33.90;;;27.30;;
7557;SDS011;3820;51.098;13.716;2023-04-09T13:09:43;39.28;;;31.45;;
7557;SDS011;3820;51.098;13.716;2023-04-09T13:12:10;37.83;;;30.45;;
7557;SDS011;3820;51.098;13.716;2023-04-09T13:14:38;34.20;;;29.23;;
7557;SDS011;3820;51.098;13.716;2023-04-09T13:17:05;34.13;;;28.77;;
7557;SDS011;3820;51.098;13.716;2023-04-09T13:19:31;35.88;;;28.85;;
7557;SDS011;3820;51.098;13.716;2023-04-09T13:21:59;36.80;;;29.63;;
7557;SDS011;3820;51.098;13.716;2023-04-09T13:24:25;38.15;;;29.92;;
7557;SDS011;3820;51.098;13.716;2023-04-09T13:26:52;33.40;;;26.73;;
7557;SDS011;3820;51.098;13.716;2023-04-09T13:29:19;30.27;;;25.35;;
7557;SDS011;3820;51.098;13.716;2023-04-09T13:31:45;30.67;;;25.23;;
7557;SDS011;3820;51.098;13.716;2023-04-09T13:34:12;30.40;;;25.38;;
7557;SDS011;3820;51.098;13.716;2023-04-09T13:36:42;32.00;;;26.10;;
7557;SDS011;3820;51.098;13.716;2023-04-09T13:39:09;30.42;;;24.35;;
7557;SDS011;3820;51.098;13.716;2023-04-09T13:41:35;32.88;;;25.23;;
7557;SDS011;3820;51.098;13.716;2023-04-09T13:44:03;30.63;;;24.17;;
7557;SDS011;3820;51.098;13.716;2023-04-09T13:46:37;30.52;;;24.80;;
7557;SDS011;3820;51.098;13.716;2023-04-09T13:49:05;30.55;;;24.65;;
7557;SDS011;3820;51.098;13.716;2023-04-09T13:51:32;29.88;;;24.65;;
7557;SDS011;3820;51.098;13.716;2023-04-09T13:53:59;29.98;;;23.55;;
7557;SDS011;3820;51.098;13.716;2023-04-09T13:56:25;28.60;;;23.83;;
7557;SDS011;3820;51.098;13.716;2023-04-09T13:58:54;25.83;;;22.25;;
7557;SDS011;3820;51.098;13.716;2023-04-09T14:01:20;25.65;;;21.80;;
7557;SDS011;3820;51.098;13.716;2023-04-09T14:03:48;27.50;;;23.42;;
7557;SDS011;3820;51.098;13.716;2023-04-09T14:06:15;25.48;;;21.58;;
7557;SDS011;3820;51.098;13.716;2023-04-09T14:08:41;25.15;;;21.45;;
7557;SDS011;3820;51.098;13.716;2023-04-09T14:11:09;27.35;;;22.08;;
7557;SDS011;3820;51.098;13.716;2023-04-09T14:13:40;24.85;;;20.85;;
7557;SDS011;3820;51.098;13.716;2023-04-09T14:16:06;22.02;;;19.63;;
7557;SDS011;3820;51.098;13.716;2023-04-09T14:18:34;23.30;;;18.70;;
7557;SDS011;3820;51.098;13.716;2023-04-09T14:21:01;22.92;;;19.05;;
7557;SDS011;3820;51.098;13.716;2023-04-09T14:23:28;22.85;;;17.98;;
7557;SDS011;3820;51.098;13.716;2023-04-09T14:25:54;21.75;;;18.20;;
7557;SDS011;3820;51.098;13.716;2023-04-09T14:28:21;20.52;;;17.48;;
7557;SDS011;3820;51.098;13.716;2023-04-09T14:30:47;22.58;;;18.08;;
7557;SDS011;3820;51.098;13.716;2023-04-09T14:33:15;19.58;;;17.20;;
7557;SDS011;3820;51.098;13.716;2023-04-09T14:35:41;21.55;;;17.80;;
7557;SDS011;3820;51.098;13.716;2023-04-09T14:38:08;21.20;;;17.70;;
7557;SDS011;3820;51.098;13.716;2023-04-09T14:40:35;22.63;;;17.73;;
7557;SDS011;3820;51.098;13.716;2023-04-09T14:43:02;19.13;;;16.83;;
7557;SDS011;3820;51.098;13.716;2023-04-09T14:45:28;21.95;;;17.23;;
7557;SDS011;3820;51.098;13.716;2023-04-09T14:47:56;21.30;;;17.30;;
7557;SDS011;3820;51.098;13.716;2023-04-09T14:50:22;18.00;;;15.98;;
7557;SDS011;3820;51.098;13.716;2023-04-09T14:52:49;18.88;;;16.30;;
7557;SDS011;3820;51.098;13.716;2023-04-09T14:55:15;16.70;;;13.98;;
7557;SDS011;3820;51.098;13.716;2023-04-09T14:57:42;18.10;;;15.00;;
7557;SDS011;3820;51.098;13.716;2023-04-09T15:00:10;17.30;;;15.43;;